sensor_id;sensor_type;location;lat;lon;timestamp;pressure;altitude;pressure_sealevel;temperature;humidity
47524;BME280;33253;42.144;25.884;2024-02-21T00:00:53;101188.88;;;5.70;100.00
47524;BME280;33253;42.144;25.884;2024-02-21T00:03:20;101190.25;;;5.78;100.00
47524;BME280;33253;42.144;25.884;2024-02-21T00:05:45;101260.44;;;6.30;100.00
47524;BME280;33253;42.144;25.884;2024-02-21T00:08:11;101272.13;;;6.39;100.00
47524;BME280;33253;42.144;25.884;2024-02-21T00:10:36;101242.63;;;6.32;100.00
47524;BME280;33253;42.144;25.884;2024-02-21T00:13:02;101268.13;;;6.56;100.00
47524;BME280;33253;42.144;25.884;2024-02-21T00:15:28;101239.88;;;6.42;100.00
47524;BME280;33253;42.144;25.884;2024-02-21T00:17:54;101195.94;;;6.11;100.00
47524;BME280;33253;42.144;25.884;2024-02-21T00:20:19;101273.94;;;6.53;100.00
47524;BME280;33253;42.144;25.884;2024-02-21T00:22:45;101239.78;;;6.41;100.00
47524;BME280;33253;42.144;25.884;2024-02-21T00:25:11;101267.13;;;6.54;100.00
47524;BME280;33253;42.144;25.884;2024-02-21T00:27:36;101244.78;;;6.26;100.00
47524;BME280;33253;42.144;25.884;2024-02-21T00:30:02;101265.56;;;6.17;100.00
47524;BME280;33253;42.144;25.884;2024-02-21T00:32:28;101121.81;;;5.13;100.00
47524;BME280;33253;42.144;25.884;2024-02-21T00:34:54;101272.31;;;5.91;100.00
47524;BME280;33253;42.144;25.884;2024-02-21T00:37:19;101200.88;;;5.71;100.00
47524;BME280;33253;42.144;25.884;2024-02-21T00:39:45;101272.75;;;6.09;100.00
47524;BME280;33253;42.144;25.884;2024-02-21T00:42:10;101267.28;;;6.05;100.00
47524;BME280;33253;42.144;25.884;2024-02-21T00:44:36;101242.13;;;5.99;100.00
47524;BME280;33253;42.144;25.884;2024-02-21T00:47:02;101269.91;;;6.18;100.00
47524;BME280;33253;42.144;25.884;2024-02-21T00:49:27;101127.63;;;5.35;100.00
47524;BME280;33253;42.144;25.884;2024-02-21T00:51:53;101264.47;;;6.13;100.00
47524;BME280;33253;42.144;25.884;2024-02-21T00:54:18;101258.66;;;6.16;100.00
47524;BME280;33253;42.144;25.884;2024-02-21T00:56:44;101262.22;;;6.18;100.00
47524;BME280;33253;42.144;25.884;2024-02-21T00:59:09;101266.44;;;6.18;100.00
47524;BME280;33253;42.144;25.884;2024-02-21T01:01:35;101263.09;;;6.19;100.00
47524;BME280;33253;42.144;25.884;2024-02-21T01:04:00;101258.28;;;6.23;100.00
47524;BME280;33253;42.144;25.884;2024-02-21T01:06:26;101235.53;;;6.03;100.00
47524;BME280;33253;42.144;25.884;2024-02-21T01:08:51;101257.94;;;5.93;100.00
47524;BME280;33253;42.144;25.884;2024-02-21T01:11:17;101249.44;;;5.69;100.00
47524;BME280;33253;42.144;25.884;2024-02-21T01:13:42;101247.56;;;5.66;100.00
47524;BME280;33253;42.144;25.884;2024-02-21T01:16:08;101252.25;;;5.72;100.00
47524;BME280;33253;42.144;25.884;2024-02-21T01:18:34;101247.63;;;5.80;100.00
47524;BME280;33253;42.144;25.884;2024-02-21T01:20:59;101243.59;;;5.83;100.00
47524;BME280;33253;42.144;25.884;2024-02-21T01:23:25;101222.84;;;5.67;100.00
47524;BME280;33253;42.144;25.884;2024-02-21T01:25:51;101241.06;;;5.72;100.00
47524;BME280;33253;42.144;25.884;2024-02-21T01:28:18;101221.53;;;5.60;100.00
47524;BME280;33253;42.144;25.884;2024-02-21T01:30:43;101057.41;;;4.69;100.00
47524;BME280;33253;42.144;25.884;2024-02-21T01:33:09;101231.31;;;5.66;100.00
47524;BME280;33253;42.144;25.884;2024-02-21T01:35:35;101207.34;;;5.65;100.00
47524;BME280;33253;42.144;25.884;2024-02-21T01:38:00;101138.81;;;5.24;100.00
47524;BME280;33253;42.144;25.884;2024-02-21T01:40:26;101238.06;;;5.77;100.00
47524;BME280;33253;42.144;25.884;2024-02-21T01:42:53;101223.22;;;5.85;100.00
47524;BME280;33253;42.144;25.884;2024-02-21T01:45:20;101226.88;;;5.89;100.00
47524;BME280;33253;42.144;25.884;2024-02-21T01:47:45;101234.19;;;5.96;100.00
47524;BME280;33253;42.144;25.884;2024-02-21T01:50:11;101231.53;;;5.94;100.00
47524;BME280;33253;42.144;25.884;2024-02-21T01:52:38;101234.75;;;5.92;100.00
47524;BME280;33253;42.144;25.884;2024-02-21T01:55:05;101237.53;;;5.95;100.00
47524;BME280;33253;42.144;25.884;2024-02-21T01:57:31;101212.97;;;5.85;100.00
47524;BME280;33253;42.144;25.884;2024-02-21T01:59:57;101232.41;;;5.95;100.00
47524;BME280;33253;42.144;25.884;2024-02-21T02:02:23;101233.41;;;5.97;100.00
47524;BME280;33253;42.144;25.884;2024-02-21T02:04:50;101167.53;;;5.57;100.00
47524;BME280;33253;42.144;25.884;2024-02-21T02:07:17;101235.75;;;5.94;100.00
47524;BME280;33253;42.144;25.884;2024-02-21T02:09:42;101230.72;;;5.95;100.00
47524;BME280;33253;42.144;25.884;2024-02-21T02:12:08;101232.78;;;5.99;100.00
47524;BME280;33253;42.144;25.884;2024-02-21T02:14:34;101231.97;;;6.01;100.00
47524;BME280;33253;42.144;25.884;2024-02-21T02:16:59;101231.31;;;6.03;100.00
47524;BME280;33253;42.144;25.884;2024-02-21T02:19:24;101238.31;;;6.06;100.00
47524;BME280;33253;42.144;25.884;2024-02-21T02:21:52;101206.88;;;5.96;100.00
47524;BME280;33253;42.144;25.884;2024-02-21T02:24:22;101225.19;;;6.01;100.00
47524;BME280;33253;42.144;25.884;2024-02-21T02:26:49;101239.66;;;6.01;100.00
47524;BME280;33253;42.144;25.884;2024-02-21T02:29:14;101235.66;;;5.92;100.00
47524;BME280;33253;42.144;25.884;2024-02-21T02:31:40;101225.25;;;5.77;100.00
47524;BME280;33253;42.144;25.884;2024-02-21T02:34:05;101227.13;;;5.80;100.00
47524;BME280;33253;42.144;25.884;2024-02-21T02:36:35;101233.13;;;5.80;100.00
47524;BME280;33253;42.144;25.884;2024-02-21T02:39:01;101232.34;;;5.81;100.00
47524;BME280;33253;42.144;25.884;2024-02-21T02:41:26;101229.78;;;5.81;100.00
47524;BME280;33253;42.144;25.884;2024-02-21T02:43:52;101228.13;;;5.82;100.00
47524;BME280;33253;42.144;25.884;2024-02-21T02:46:17;101230.69;;;5.82;100.00
47524;BME280;33253;42.144;25.884;2024-02-21T02:48:43;101213.47;;;5.67;100.00
47524;BME280;33253;42.144;25.884;2024-02-21T02:51:08;101240.53;;;5.76;100.00
47524;BME280;33253;42.144;25.884;2024-02-21T02:53:33;101158.50;;;5.25;100.00
47524;BME280;33253;42.144;25.884;2024-02-21T02:55:59;101228.09;;;5.57;100.00
47524;BME280;33253;42.144;25.884;2024-02-21T02:58:24;101224.38;;;5.40;100.00
47524;BME280;33253;42.144;25.884;2024-02-21T03:00:50;101159.41;;;4.89;100.00
47524;BME280;33253;42.144;25.884;2024-02-21T03:03:15;101220.63;;;5.11;100.00
47524;BME280;33253;42.144;25.884;2024-02-21T03:05:41;101221.53;;;4.99;100.00
47524;BME280;33253;42.144;25.884;2024-02-21T03:08:06;101148.16;;;4.51;100.00
47524;BME280;33253;42.144;25.884;2024-02-21T03:10:33;101191.19;;;4.80;100.00
47524;BME280;33253;42.144;25.884;2024-02-21T03:12:59;101230.66;;;5.08;100.00
47524;BME280;33253;42.144;25.884;2024-02-21T03:15:25;101200.78;;;4.95;100.00
47524;BME280;33253;42.144;25.884;2024-02-21T03:17:50;101226.44;;;5.08;100.00
47524;BME280;33253;42.144;25.884;2024-02-21T03:20:16;101239.13;;;5.18;100.00
47524;BME280;33253;42.144;25.884;2024-02-21T03:22:43;101241.31;;;5.26;100.00
47524;BME280;33253;42.144;25.884;2024-02-21T03:25:09;101243.22;;;5.28;100.00
47524;BME280;33253;42.144;25.884;2024-02-21T03:27:35;101166.84;;;4.85;100.00
47524;BME280;33253;42.144;25.884;2024-02-21T03:30:01;101241.75;;;5.32;100.00
47524;BME280;33253;42.144;25.884;2024-02-21T03:32:26;101164.94;;;4.95;100.00
47524;BME280;33253;42.144;25.884;2024-02-21T03:34:53;101253.66;;;5.43;100.00
47524;BME280;33253;42.144;25.884;2024-02-21T03:37:20;101258.91;;;5.33;100.00
47524;BME280;33253;42.144;25.884;2024-02-21T03:39:45;101242.78;;;5.22;100.00
47524;BME280;33253;42.144;25.884;2024-02-21T03:42:11;101256.47;;;5.23;100.00
47524;BME280;33253;42.144;25.884;2024-02-21T03:44:36;101231.88;;;5.13;100.00
47524;BME280;33253;42.144;25.884;2024-02-21T03:47:02;101248.22;;;5.27;100.00
47524;BME280;33253;42.144;25.884;2024-02-21T03:49:27;101251.53;;;5.38;100.00
47524;BME280;33253;42.144;25.884;2024-02-21T03:51:54;101255.22;;;5.41;100.00
47524;BME280;33253;42.144;25.884;2024-02-21T03:54:20;101242.06;;;5.48;100.00
47524;BME280;33253;42.144;25.884;2024-02-21T03:56:45;101159.53;;;5.15;100.00
47524;BME280;33253;42.144;25.884;2024-02-21T03:59:13;101225.19;;;5.64;100.00
47524;BME280;33253;42.144;25.884;2024-02-21T04:01:38;101236.59;;;5.81;100.00
47524;BME280;33253;42.144;25.884;2024-02-21T04:04:04;101226.72;;;5.74;100.00
47524;BME280;33253;42.144;25.884;2024-02-21T04:06:29;101218.28;;;5.63;100.00
47524;BME280;33253;42.144;25.884;2024-02-21T04:08:55;101227.31;;;5.70;100.00
47524;BME280;33253;42.144;25.884;2024-02-21T04:11:20;101230.63;;;5.69;100.00
47524;BME280;33253;42.144;25.884;2024-02-21T04:13:46;101222.00;;;5.55;100.00
47524;BME280;33253;42.144;25.884;2024-02-21T04:16:14;101216.19;;;5.57;100.00
47524;BME280;33253;42.144;25.884;2024-02-21T04:18:41;101187.25;;;5.21;100.00
47524;BME280;33253;42.144;25.884;2024-02-21T04:21:06;101215.78;;;5.39;100.00
47524;BME280;33253;42.144;25.884;2024-02-21T04:23:31;101145.56;;;4.98;100.00
47524;BME280;33253;42.144;25.884;2024-02-21T04:25:57;101227.00;;;5.53;100.00
47524;BME280;33253;42.144;25.884;2024-02-21T04:28:22;101226.31;;;5.56;100.00
47524;BME280;33253;42.144;25.884;2024-02-21T04:30:48;101171.31;;;5.25;100.00
47524;BME280;33253;42.144;25.884;2024-02-21T04:33:13;101217.75;;;5.55;100.00
47524;BME280;33253;42.144;25.884;2024-02-21T04:35:39;101239.09;;;5.67;100.00
47524;BME280;33253;42.144;25.884;2024-02-21T04:38:05;101235.84;;;5.70;100.00
47524;BME280;33253;42.144;25.884;2024-02-21T04:40:30;101229.69;;;5.80;100.00
47524;BME280;33253;42.144;25.884;2024-02-21T04:42:57;101216.25;;;5.71;100.00
47524;BME280;33253;42.144;25.884;2024-02-21T04:45:22;101231.34;;;5.79;100.00
47524;BME280;33253;42.144;25.884;2024-02-21T04:47:48;101242.41;;;5.78;100.00
47524;BME280;33253;42.144;25.884;2024-02-21T04:50:13;101241.31;;;5.75;100.00
47524;BME280;33253;42.144;25.884;2024-02-21T04:52:39;101245.66;;;5.76;100.00
47524;BME280;33253;42.144;25.884;2024-02-21T04:55:04;101248.22;;;5.76;100.00
47524;BME280;33253;42.144;25.884;2024-02-21T04:57:32;101252.66;;;5.78;100.00
47524;BME280;33253;42.144;25.884;2024-02-21T04:59:57;101254.22;;;5.76;100.00
47524;BME280;33253;42.144;25.884;2024-02-21T05:02:23;101256.59;;;5.73;100.00
47524;BME280;33253;42.144;25.884;2024-02-21T05:04:50;101249.44;;;5.69;100.00
47524;BME280;33253;42.144;25.884;2024-02-21T05:07:15;101221.69;;;5.50;100.00
47524;BME280;33253;42.144;25.884;2024-02-21T05:09:42;101175.00;;;5.17;100.00
47524;BME280;33253;42.144;25.884;2024-02-21T05:12:08;101249.50;;;5.57;100.00
47524;BME280;33253;42.144;25.884;2024-02-21T05:14:34;101247.47;;;5.53;100.00
47524;BME280;33253;42.144;25.884;2024-02-21T05:16:59;101266.53;;;5.57;100.00
47524;BME280;33253;42.144;25.884;2024-02-21T05:19:25;101280.91;;;5.55;100.00
47524;BME280;33253;42.144;25.884;2024-02-21T05:21:50;101281.59;;;5.52;100.00
47524;BME280;33253;42.144;25.884;2024-02-21T05:24:16;101289.63;;;5.45;100.00
47524;BME280;33253;42.144;25.884;2024-02-21T05:26:41;101271.81;;;5.34;100.00
47524;BME280;33253;42.144;25.884;2024-02-21T05:29:07;101295.63;;;5.45;100.00
47524;BME280;33253;42.144;25.884;2024-02-21T05:31:56;101232.13;;;5.16;100.00
47524;BME280;33253;42.144;25.884;2024-02-21T05:34:22;101294.94;;;5.48;100.00
47524;BME280;33253;42.144;25.884;2024-02-21T05:36:48;101288.59;;;5.43;100.00
47524;BME280;33253;42.144;25.884;2024-02-21T05:39:17;101300.63;;;5.44;100.00
47524;BME280;33253;42.144;25.884;2024-02-21T05:41:43;101298.19;;;5.45;100.00
47524;BME280;33253;42.144;25.884;2024-02-21T05:44:08;101297.84;;;5.41;100.00
47524;BME280;33253;42.144;25.884;2024-02-21T05:46:34;101298.66;;;5.28;100.00
47524;BME280;33253;42.144;25.884;2024-02-21T05:49:00;101299.09;;;5.34;100.00
47524;BME280;33253;42.144;25.884;2024-02-21T05:51:26;101301.75;;;5.35;100.00
47524;BME280;33253;42.144;25.884;2024-02-21T05:53:51;101295.66;;;5.33;100.00
47524;BME280;33253;42.144;25.884;2024-02-21T05:56:17;101301.66;;;5.46;100.00
47524;BME280;33253;42.144;25.884;2024-02-21T05:58:43;101304.88;;;5.43;100.00
47524;BME280;33253;42.144;25.884;2024-02-21T06:01:09;101301.41;;;5.43;100.00
47524;BME280;33253;42.144;25.884;2024-02-21T06:03:35;101302.41;;;5.45;100.00
47524;BME280;33253;42.144;25.884;2024-02-21T06:06:01;101312.75;;;5.46;100.00
47524;BME280;33253;42.144;25.884;2024-02-21T06:08:27;101310.31;;;5.48;100.00
47524;BME280;33253;42.144;25.884;2024-02-21T06:10:53;101243.91;;;5.14;100.00
47524;BME280;33253;42.144;25.884;2024-02-21T06:13:28;101296.97;;;5.40;100.00
47524;BME280;33253;42.144;25.884;2024-02-21T06:15:54;101249.47;;;5.08;100.00
47524;BME280;33253;42.144;25.884;2024-02-21T06:18:20;101244.47;;;4.98;100.00
47524;BME280;33253;42.144;25.884;2024-02-21T06:20:46;101283.75;;;5.22;100.00
47524;BME280;33253;42.144;25.884;2024-02-21T06:23:16;101299.88;;;5.21;100.00
47524;BME280;33253;42.144;25.884;2024-02-21T06:25:44;101319.81;;;5.37;100.00
47524;BME280;33253;42.144;25.884;2024-02-21T06:28:12;101316.66;;;5.29;100.00
47524;BME280;33253;42.144;25.884;2024-02-21T06:30:38;101322.13;;;5.34;100.00
47524;BME280;33253;42.144;25.884;2024-02-21T06:33:04;101321.56;;;5.38;100.00
47524;BME280;33253;42.144;25.884;2024-02-21T06:35:30;101317.69;;;5.43;100.00
47524;BME280;33253;42.144;25.884;2024-02-21T06:37:55;101302.66;;;5.36;100.00
47524;BME280;33253;42.144;25.884;2024-02-21T06:40:22;101324.22;;;5.51;100.00
47524;BME280;33253;42.144;25.884;2024-02-21T06:42:48;101328.13;;;5.58;100.00
47524;BME280;33253;42.144;25.884;2024-02-21T06:45:14;101331.00;;;5.63;100.00
47524;BME280;33253;42.144;25.884;2024-02-21T06:47:40;101328.53;;;5.64;100.00
47524;BME280;33253;42.144;25.884;2024-02-21T06:50:06;101333.88;;;5.67;100.00
47524;BME280;33253;42.144;25.884;2024-02-21T06:52:31;101315.97;;;5.67;100.00
47524;BME280;33253;42.144;25.884;2024-02-21T06:54:57;101332.97;;;5.79;100.00
47524;BME280;33253;42.144;25.884;2024-02-21T06:57:23;101322.53;;;5.76;100.00
47524;BME280;33253;42.144;25.884;2024-02-21T06:59:48;101313.34;;;5.79;100.00
47524;BME280;33253;42.144;25.884;2024-02-21T07:02:14;101333.06;;;5.80;100.00
47524;BME280;33253;42.144;25.884;2024-02-21T07:04:40;101333.31;;;5.83;100.00
47524;BME280;33253;42.144;25.884;2024-02-21T07:07:05;101340.75;;;5.92;100.00
47524;BME280;33253;42.144;25.884;2024-02-21T07:09:31;101326.94;;;6.02;100.00
47524;BME280;33253;42.144;25.884;2024-02-21T07:12:00;101329.69;;;6.05;100.00
47524;BME280;33253;42.144;25.884;2024-02-21T07:14:25;101261.63;;;5.60;100.00
47524;BME280;33253;42.144;25.884;2024-02-21T07:16:51;101325.63;;;5.72;100.00
47524;BME280;33253;42.144;25.884;2024-02-21T07:19:17;101332.88;;;5.77;100.00
47524;BME280;33253;42.144;25.884;2024-02-21T07:21:42;101326.50;;;5.84;100.00
47524;BME280;33253;42.144;25.884;2024-02-21T07:24:08;101326.13;;;5.91;100.00
47524;BME280;33253;42.144;25.884;2024-02-21T07:26:34;101327.59;;;5.88;100.00
47524;BME280;33253;42.144;25.884;2024-02-21T07:29:00;101326.47;;;5.96;100.00
47524;BME280;33253;42.144;25.884;2024-02-21T07:31:25;101326.47;;;5.96;100.00
47524;BME280;33253;42.144;25.884;2024-02-21T07:33:51;101325.13;;;6.01;100.00
47524;BME280;33253;42.144;25.884;2024-02-21T07:36:28;101319.94;;;6.13;100.00
47524;BME280;33253;42.144;25.884;2024-02-21T07:38:54;101328.06;;;6.19;100.00
47524;BME280;33253;42.144;25.884;2024-02-21T07:41:20;101331.53;;;6.20;100.00
47524;BME280;33253;42.144;25.884;2024-02-21T07:43:45;101332.63;;;6.23;100.00
47524;BME280;33253;42.144;25.884;2024-02-21T07:46:11;101340.34;;;6.23;100.00
47524;BME280;33253;42.144;25.884;2024-02-21T07:48:36;101338.88;;;6.27;100.00
47524;BME280;33253;42.144;25.884;2024-02-21T07:51:02;101338.78;;;6.39;100.00
47524;BME280;33253;42.144;25.884;2024-02-21T07:53:28;101340.50;;;6.38;100.00
47524;BME280;33253;42.144;25.884;2024-02-21T07:55:53;101339.13;;;6.43;100.00
47524;BME280;33253;42.144;25.884;2024-02-21T07:58:19;101338.94;;;6.54;100.00
47524;BME280;33253;42.144;25.884;2024-02-21T08:00:44;101347.16;;;6.61;100.00
47524;BME280;33253;42.144;25.884;2024-02-21T08:03:10;101264.97;;;6.21;100.00
47524;BME280;33253;42.144;25.884;2024-02-21T08:05:35;101325.53;;;6.58;100.00
47524;BME280;33253;42.144;25.884;2024-02-21T08:08:02;101340.59;;;6.78;100.00
47524;BME280;33253;42.144;25.884;2024-02-21T08:10:28;101340.22;;;6.99;100.00
47524;BME280;33253;42.144;25.884;2024-02-21T08:12:53;101331.81;;;7.15;100.00
47524;BME280;33253;42.144;25.884;2024-02-21T08:15:18;101334.69;;;7.20;100.00
47524;BME280;33253;42.144;25.884;2024-02-21T08:17:44;101329.06;;;7.12;100.00
47524;BME280;33253;42.144;25.884;2024-02-21T08:20:10;101330.16;;;7.16;100.00
47524;BME280;33253;42.144;25.884;2024-02-21T08:22:37;101249.06;;;6.92;100.00
47524;BME280;33253;42.144;25.884;2024-02-21T08:25:04;101327.66;;;7.57;100.00
47524;BME280;33253;42.144;25.884;2024-02-21T08:27:30;101322.56;;;7.72;100.00
47524;BME280;33253;42.144;25.884;2024-02-21T08:29:56;101328.84;;;7.91;100.00
47524;BME280;33253;42.144;25.884;2024-02-21T08:32:22;101333.09;;;8.04;100.00
47524;BME280;33253;42.144;25.884;2024-02-21T08:34:47;101326.19;;;8.18;100.00
47524;BME280;33253;42.144;25.884;2024-02-21T08:37:13;101324.38;;;8.30;100.00
47524;BME280;33253;42.144;25.884;2024-02-21T08:39:38;101330.34;;;8.44;100.00
47524;BME280;33253;42.144;25.884;2024-02-21T08:42:04;101341.75;;;8.34;100.00
47524;BME280;33253;42.144;25.884;2024-02-21T08:44:30;101345.19;;;8.35;100.00
47524;BME280;33253;42.144;25.884;2024-02-21T08:46:55;101346.81;;;8.46;100.00
47524;BME280;33253;42.144;25.884;2024-02-21T08:49:21;101344.59;;;8.52;100.00
47524;BME280;33253;42.144;25.884;2024-02-21T08:51:46;101346.97;;;8.64;100.00
47524;BME280;33253;42.144;25.884;2024-02-21T08:54:12;101349.75;;;8.67;100.00
47524;BME280;33253;42.144;25.884;2024-02-21T08:56:37;101342.56;;;8.77;100.00
47524;BME280;33253;42.144;25.884;2024-02-21T08:59:04;101340.25;;;8.66;100.00
47524;BME280;33253;42.144;25.884;2024-02-21T09:01:29;101343.78;;;8.83;100.00
47524;BME280;33253;42.144;25.884;2024-02-21T09:03:55;101355.72;;;8.96;100.00
47524;BME280;33253;42.144;25.884;2024-02-21T09:06:22;101355.78;;;8.98;100.00
47524;BME280;33253;42.144;25.884;2024-02-21T09:08:47;101356.56;;;9.12;100.00
47524;BME280;33253;42.144;25.884;2024-02-21T09:11:33;101363.94;;;9.05;100.00
47524;BME280;33253;42.144;25.884;2024-02-21T09:13:59;101358.44;;;9.14;100.00
47524;BME280;33253;42.144;25.884;2024-02-21T09:16:25;101343.59;;;9.25;100.00
47524;BME280;33253;42.144;25.884;2024-02-21T09:18:50;101270.59;;;8.95;100.00
47524;BME280;33253;42.144;25.884;2024-02-21T09:21:16;101281.78;;;9.10;100.00
47524;BME280;33253;42.144;25.884;2024-02-21T09:23:41;101303.38;;;9.44;100.00
47524;BME280;33253;42.144;25.884;2024-02-21T09:26:07;101346.88;;;9.85;100.00
47524;BME280;33253;42.144;25.884;2024-02-21T09:28:35;101323.56;;;9.67;100.00
47524;BME280;33253;42.144;25.884;2024-02-21T09:31:00;101340.66;;;9.82;100.00
47524;BME280;33253;42.144;25.884;2024-02-21T09:33:27;101342.56;;;10.01;100.00
47524;BME280;33253;42.144;25.884;2024-02-21T09:35:52;101282.56;;;9.72;100.00
47524;BME280;33253;42.144;25.884;2024-02-21T09:38:18;101339.06;;;10.00;100.00
47524;BME280;33253;42.144;25.884;2024-02-21T09:40:43;101346.41;;;10.09;100.00
47524;BME280;33253;42.144;25.884;2024-02-21T09:43:09;101357.09;;;10.32;100.00
47524;BME280;33253;42.144;25.884;2024-02-21T09:45:35;101327.25;;;10.37;100.00
47524;BME280;33253;42.144;25.884;2024-02-21T09:48:25;101344.00;;;10.62;100.00
47524;BME280;33253;42.144;25.884;2024-02-21T09:50:51;101330.38;;;10.82;100.00
47524;BME280;33253;42.144;25.884;2024-02-21T09:53:18;101326.81;;;10.97;100.00
47524;BME280;33253;42.144;25.884;2024-02-21T09:55:45;101311.53;;;11.02;100.00
47524;BME280;33253;42.144;25.884;2024-02-21T09:58:12;101313.34;;;10.51;100.00
47524;BME280;33253;42.144;25.884;2024-02-21T10:00:38;101328.09;;;10.71;100.00
47524;BME280;33253;42.144;25.884;2024-02-21T10:03:03;101322.88;;;10.87;100.00
47524;BME280;33253;42.144;25.884;2024-02-21T10:05:37;101320.66;;;10.95;100.00
47524;BME280;33253;42.144;25.884;2024-02-21T10:08:04;101259.84;;;10.65;100.00
47524;BME280;33253;42.144;25.884;2024-02-21T10:10:29;101322.28;;;10.93;100.00
47524;BME280;33253;42.144;25.884;2024-02-21T10:12:55;101320.75;;;11.14;100.00
47524;BME280;33253;42.144;25.884;2024-02-21T10:15:22;101320.25;;;11.22;100.00
47524;BME280;33253;42.144;25.884;2024-02-21T10:17:58;101251.72;;;10.76;100.00
47524;BME280;33253;42.144;25.884;2024-02-21T10:20:24;101324.38;;;11.18;100.00
47524;BME280;33253;42.144;25.884;2024-02-21T10:23:03;101309.69;;;11.17;100.00
47524;BME280;33253;42.144;25.884;2024-02-21T10:25:38;101303.19;;;11.07;100.00
47524;BME280;33253;42.144;25.884;2024-02-21T10:28:07;101305.84;;;10.91;100.00
47524;BME280;33253;42.144;25.884;2024-02-21T10:30:32;101275.94;;;10.96;100.00
47524;BME280;33253;42.144;25.884;2024-02-21T10:32:58;101296.44;;;11.29;100.00
47524;BME280;33253;42.144;25.884;2024-02-21T10:35:30;101219.81;;;11.11;100.00
47524;BME280;33253;42.144;25.884;2024-02-21T10:37:57;101290.16;;;11.42;100.00
47524;BME280;33253;42.144;25.884;2024-02-21T10:40:43;101293.09;;;11.49;99.67
47524;BME280;33253;42.144;25.884;2024-02-21T10:43:12;101281.22;;;11.35;100.00
47524;BME280;33253;42.144;25.884;2024-02-21T10:45:41;101288.44;;;11.42;99.61
47524;BME280;33253;42.144;25.884;2024-02-21T10:48:14;101288.25;;;11.38;98.45
47524;BME280;33253;42.144;25.884;2024-02-21T10:51:17;101292.38;;;11.72;96.61
47524;BME280;33253;42.144;25.884;2024-02-21T10:53:50;101286.47;;;11.74;92.45
47524;BME280;33253;42.144;25.884;2024-02-21T10:56:28;101280.66;;;11.98;94.74
47524;BME280;33253;42.144;25.884;2024-02-21T10:58:57;101270.28;;;12.18;93.43
47524;BME280;33253;42.144;25.884;2024-02-21T11:01:23;101248.78;;;12.19;88.05
47524;BME280;33253;42.144;25.884;2024-02-21T11:03:51;101246.09;;;12.17;88.14
47524;BME280;33253;42.144;25.884;2024-02-21T11:06:20;101228.94;;;12.19;90.23
47524;BME280;33253;42.144;25.884;2024-02-21T11:08:47;101239.81;;;12.32;89.43
47524;BME280;33253;42.144;25.884;2024-02-21T11:11:13;101245.50;;;12.65;84.58
47524;BME280;33253;42.144;25.884;2024-02-21T11:13:44;101236.75;;;12.84;82.38
47524;BME280;33253;42.144;25.884;2024-02-21T11:16:20;101228.75;;;13.01;79.35
47524;BME280;33253;42.144;25.884;2024-02-21T11:18:46;101220.88;;;12.98;82.41
47524;BME280;33253;42.144;25.884;2024-02-21T11:21:12;101218.06;;;12.70;80.41
47524;BME280;33253;42.144;25.884;2024-02-21T11:23:39;101140.91;;;12.19;77.14
47524;BME280;33253;42.144;25.884;2024-02-21T11:26:08;101193.47;;;12.82;75.46
47524;BME280;33253;42.144;25.884;2024-02-21T11:28:35;101086.09;;;12.29;74.07
47524;BME280;33253;42.144;25.884;2024-02-21T11:31:08;101189.31;;;13.08;73.06
47524;BME280;33253;42.144;25.884;2024-02-21T11:33:34;101199.03;;;13.14;71.70
47524;BME280;33253;42.144;25.884;2024-02-21T11:36:01;101189.19;;;13.05;75.17
47524;BME280;33253;42.144;25.884;2024-02-21T11:38:26;101188.50;;;12.65;75.06
47524;BME280;33253;42.144;25.884;2024-02-21T11:40:52;101184.13;;;12.85;75.36
47524;BME280;33253;42.144;25.884;2024-02-21T11:43:17;101175.56;;;12.88;75.84
47524;BME280;33253;42.144;25.884;2024-02-21T11:45:43;101179.25;;;12.49;76.14
47524;BME280;33253;42.144;25.884;2024-02-21T11:48:08;101178.41;;;12.08;77.96
47524;BME280;33253;42.144;25.884;2024-02-21T11:50:35;101161.44;;;11.95;77.54
47524;BME280;33253;42.144;25.884;2024-02-21T11:53:02;101046.66;;;11.31;76.94
47524;BME280;33253;42.144;25.884;2024-02-21T11:55:28;101168.53;;;12.19;75.03
47524;BME280;33253;42.144;25.884;2024-02-21T11:57:53;101166.16;;;12.46;74.30
47524;BME280;33253;42.144;25.884;2024-02-21T12:00:19;101092.03;;;12.27;73.30
47524;BME280;33253;42.144;25.884;2024-02-21T12:02:46;101156.81;;;12.93;72.10
47524;BME280;33253;42.144;25.884;2024-02-21T12:05:12;101157.66;;;13.17;69.16
47524;BME280;33253;42.144;25.884;2024-02-21T12:07:38;101097.28;;;12.97;68.01
47524;BME280;33253;42.144;25.884;2024-02-21T12:10:15;101063.81;;;12.78;68.78
47524;BME280;33253;42.144;25.884;2024-02-21T12:12:40;101137.19;;;13.47;70.05
47524;BME280;33253;42.144;25.884;2024-02-21T12:15:07;101135.22;;;13.40;70.06
47524;BME280;33253;42.144;25.884;2024-02-21T12:17:36;101134.81;;;13.53;68.69
47524;BME280;33253;42.144;25.884;2024-02-21T12:20:03;101130.94;;;13.66;69.96
47524;BME280;33253;42.144;25.884;2024-02-21T12:22:35;101075.41;;;13.37;70.79
47524;BME280;33253;42.144;25.884;2024-02-21T12:25:04;101107.19;;;13.80;71.56
47524;BME280;33253;42.144;25.884;2024-02-21T12:27:41;101118.09;;;13.45;70.20
47524;BME280;33253;42.144;25.884;2024-02-21T12:30:07;101104.09;;;13.40;69.93
47524;BME280;33253;42.144;25.884;2024-02-21T12:32:35;101095.34;;;13.14;71.95
47524;BME280;33253;42.144;25.884;2024-02-21T12:35:01;101124.06;;;13.42;69.92